createdAt,value
2017-09-09T00:00:13.535Z,23.55
2017-09-09T00:00:53.988Z,23.66
2017-09-09T00:01:34.431Z,23.55
2017-09-09T00:02:14.881Z,23.62
2017-09-09T00:02:55.334Z,23.59
2017-09-09T00:03:35.791Z,23.55
2017-09-09T00:04:16.249Z,23.58
2017-09-09T00:04:56.710Z,23.51
2017-09-09T00:06:49.328Z,23.58
2017-09-09T00:07:29.779Z,23.55
2017-09-09T00:08:10.237Z,23.55
2017-09-09T00:08:50.692Z,23.56
2017-09-09T00:09:31.147Z,23.56
2017-09-09T00:10:11.595Z,23.56
2017-09-09T00:10:52.042Z,23.54
2017-09-09T00:11:32.485Z,23.56
2017-09-09T00:12:12.930Z,23.59
2017-09-09T00:12:53.382Z,23.51
2017-09-09T00:13:33.830Z,23.52
2017-09-09T00:14:14.285Z,23.55
2017-09-09T00:14:54.740Z,23.59
2017-09-09T00:15:35.193Z,23.54
2017-09-09T00:16:15.649Z,23.51
2017-09-09T00:16:56.098Z,23.55
2017-09-09T00:17:36.559Z,23.52
2017-09-09T00:18:17.021Z,23.55
2017-09-09T00:18:57.468Z,23.49
2017-09-09T00:19:37.926Z,23.52
2017-09-09T00:20:18.371Z,23.51
2017-09-09T00:20:58.864Z,23.54
2017-09-09T00:21:39.308Z,23.54
2017-09-09T00:22:19.770Z,23.58
2017-09-09T00:23:00.217Z,23.56
2017-09-09T00:23:40.728Z,23.52
2017-09-09T00:24:21.211Z,23.48
2017-09-09T00:25:01.670Z,23.48
2017-09-09T00:25:42.247Z,23.54
2017-09-09T00:27:19.647Z,23.52
2017-09-09T00:28:00.093Z,23.48
2017-09-09T00:28:40.543Z,23.49
2017-09-09T00:29:20.995Z,23.47
2017-09-09T00:30:01.452Z,23.44
2017-09-09T00:30:41.904Z,23.48
2017-09-09T00:31:22.361Z,23.42
2017-09-09T00:32:02.883Z,23.49
2017-09-09T00:32:43.248Z,23.47
2017-09-09T00:33:23.723Z,23.49
2017-09-09T00:34:04.178Z,23.45
2017-09-09T00:34:44.641Z,23.42
2017-09-09T00:35:25.086Z,23.42
2017-09-09T00:36:05.543Z,23.45
2017-09-09T00:36:45.993Z,23.47
2017-09-09T00:37:26.496Z,23.42
2017-09-09T00:38:06.953Z,23.44
2017-09-09T00:38:47.454Z,23.51
2017-09-09T00:39:27.849Z,23.37
2017-09-09T00:40:08.307Z,23.39
2017-09-09T00:40:48.755Z,23.42
2017-09-09T00:41:29.209Z,23.4
2017-09-09T00:42:09.659Z,23.42
2017-09-09T00:42:50.109Z,23.44
2017-09-09T00:43:30.565Z,23.4
2017-09-09T00:44:11.037Z,23.45
2017-09-09T00:44:51.486Z,23.4
2017-09-09T00:45:31.937Z,23.44
2017-09-09T00:46:12.388Z,23.36
2017-09-09T00:46:52.844Z,23.39
2017-09-09T00:47:33.299Z,23.32
2017-09-09T00:48:13.767Z,23.26
2017-09-09T00:48:54.217Z,23.45
2017-09-09T00:49:34.676Z,23.28
2017-09-09T00:50:15.126Z,23.32
2017-09-09T00:50:55.582Z,23.33
2017-09-09T00:51:36.099Z,23.29
2017-09-09T00:52:16.552Z,23.29
2017-09-09T00:52:56.999Z,23.34
2017-09-09T00:53:37.455Z,23.28
2017-09-09T00:54:17.913Z,23.33
2017-09-09T00:54:58.363Z,23.28
2017-09-09T00:55:38.826Z,23.28
2017-09-09T00:56:19.278Z,23.34
2017-09-09T00:56:59.735Z,23.29
2017-09-09T00:57:40.188Z,23.29
2017-09-09T00:58:20.646Z,23.42
2017-09-09T00:59:01.104Z,23.26
2017-09-09T00:59:41.557Z,23.32
2017-09-09T01:00:22.010Z,23.28
2017-09-09T01:01:02.473Z,23.32
2017-09-09T01:01:42.924Z,23.33
2017-09-09T01:02:23.377Z,23.28
2017-09-09T01:03:03.829Z,23.26
2017-09-09T01:03:44.269Z,23.23
2017-09-09T01:04:24.830Z,23.37
2017-09-09T01:05:05.285Z,23.34
2017-09-09T01:05:45.735Z,23.34
2017-09-09T01:06:26.199Z,23.37
2017-09-09T01:07:06.657Z,23.37
2017-09-09T01:07:47.087Z,23.28
2017-09-09T01:08:27.543Z,23.26
2017-09-09T01:09:07.993Z,23.26
2017-09-09T01:09:48.445Z,23.36
2017-09-09T01:10:28.948Z,23.36
2017-09-09T01:11:09.400Z,23.36
2017-09-09T01:11:49.853Z,23.26
2017-09-09T01:12:30.307Z,23.33
2017-09-09T01:13:10.760Z,23.25
2017-09-09T01:13:51.218Z,23.33
2017-09-09T01:14:31.665Z,23.26
2017-09-09T01:15:12.115Z,23.29
2017-09-09T01:15:52.571Z,23.32
2017-09-09T01:16:33.027Z,23.29
2017-09-09T01:17:13.490Z,23.26
2017-09-09T01:17:53.937Z,23.34
2017-09-09T01:18:34.395Z,23.28
2017-09-09T01:19:14.846Z,23.34
2017-09-09T01:19:55.302Z,23.26
2017-09-09T01:20:35.766Z,23.34
2017-09-09T01:21:16.211Z,23.23
2017-09-09T01:21:56.663Z,23.33
2017-09-09T01:22:37.119Z,23.34
2017-09-09T01:23:17.573Z,23.32
2017-09-09T01:23:58.029Z,23.33
2017-09-09T01:24:38.488Z,23.32
2017-09-09T01:25:18.937Z,23.21
2017-09-09T01:25:59.396Z,23.32
2017-09-09T01:26:39.856Z,23.32
2017-09-09T01:27:20.302Z,23.37
2017-09-09T01:28:00.755Z,23.29
2017-09-09T01:28:41.205Z,23.25
2017-09-09T01:29:21.664Z,23.26
2017-09-09T01:30:02.121Z,23.29
2017-09-09T01:30:42.576Z,23.29
2017-09-09T01:31:23.030Z,23.26
2017-09-09T01:32:03.485Z,23.26
2017-09-09T01:32:43.926Z,23.28
2017-09-09T01:33:24.391Z,23.29
2017-09-09T01:34:04.848Z,23.25
2017-09-09T01:34:45.302Z,23.25
2017-09-09T01:35:25.757Z,23.29
2017-09-09T01:36:06.215Z,23.18
2017-09-09T01:36:46.661Z,23.32
2017-09-09T01:37:27.121Z,23.26
2017-09-09T01:38:07.579Z,23.29
2017-09-09T01:38:48.035Z,23.25
2017-09-09T01:39:28.497Z,23.2
2017-09-09T01:40:08.950Z,23.21
2017-09-09T01:40:49.401Z,23.28
2017-09-09T01:41:29.849Z,23.26
2017-09-09T01:42:10.304Z,23.26
2017-09-09T01:42:50.752Z,23.28
2017-09-09T01:43:31.203Z,23.25
2017-09-09T01:44:11.664Z,23.34
2017-09-09T01:44:52.124Z,23.25
2017-09-09T01:45:32.585Z,23.26
2017-09-09T01:46:13.039Z,23.32
2017-09-09T01:46:53.492Z,23.32
2017-09-09T01:47:33.945Z,23.26
2017-09-09T01:48:14.398Z,23.26
2017-09-09T01:48:54.853Z,23.28
2017-09-09T01:49:35.309Z,23.28
2017-09-09T01:50:15.852Z,23.28
2017-09-09T01:50:56.304Z,23.26
2017-09-09T01:51:36.762Z,23.36
2017-09-09T01:52:17.215Z,23.29
2017-09-09T01:52:57.669Z,23.32
2017-09-09T01:53:38.126Z,23.32
2017-09-09T01:54:18.576Z,23.23
2017-09-09T01:54:59.034Z,23.29
2017-09-09T01:55:39.507Z,23.29
2017-09-09T01:56:20.063Z,23.28
2017-09-09T01:57:00.534Z,23.28
2017-09-09T01:57:41.005Z,23.29
2017-09-09T01:58:21.450Z,23.32
2017-09-09T01:59:01.912Z,23.26
2017-09-09T01:59:42.360Z,23.33
2017-09-09T02:00:22.813Z,23.25
2017-09-09T02:01:03.355Z,23.32
2017-09-09T02:01:43.831Z,23.34
2017-09-09T02:02:24.289Z,23.36
2017-09-09T02:03:04.739Z,23.25
2017-09-09T02:03:45.196Z,23.23
2017-09-09T02:04:25.649Z,23.25
2017-09-09T02:05:06.118Z,23.26
2017-09-09T02:05:46.575Z,23.26
2017-09-09T02:06:27.121Z,23.32
2017-09-09T02:07:07.576Z,23.33
2017-09-09T02:07:48.021Z,23.28
2017-09-09T02:08:28.597Z,23.28
2017-09-09T02:09:09.054Z,23.29
2017-09-09T02:09:49.506Z,23.33
2017-09-09T02:10:29.971Z,23.34
2017-09-09T02:11:10.426Z,23.32
2017-09-09T02:11:50.879Z,23.32
2017-09-09T02:12:31.331Z,23.28
2017-09-09T02:13:11.789Z,23.29
2017-09-09T02:13:52.245Z,23.21
2017-09-09T02:14:32.695Z,23.32
2017-09-09T02:15:13.154Z,23.26
2017-09-09T02:15:53.607Z,23.29
2017-09-09T02:16:34.058Z,23.26
2017-09-09T02:17:14.513Z,23.33
2017-09-09T02:17:54.964Z,23.33
2017-09-09T02:18:35.419Z,23.21
2017-09-09T02:19:15.871Z,23.29
2017-09-09T02:19:56.325Z,23.28
2017-09-09T02:20:36.775Z,23.32
2017-09-09T02:21:17.232Z,23.23
2017-09-09T02:21:57.685Z,23.29
2017-09-09T02:22:38.148Z,23.21
2017-09-09T02:23:18.603Z,23.32
2017-09-09T02:23:59.056Z,23.26
2017-09-09T02:24:39.503Z,23.28
2017-09-09T02:25:20.013Z,23.26
2017-09-09T02:26:00.467Z,23.29
2017-09-09T02:26:40.920Z,23.2
2017-09-09T02:27:21.379Z,23.25
2017-09-09T02:28:01.831Z,23.28
2017-09-09T02:28:42.280Z,23.18
2017-09-09T02:29:22.735Z,23.13
2017-09-09T02:30:03.186Z,23.26
2017-09-09T02:30:43.642Z,23.28
2017-09-09T02:31:24.100Z,23.23
2017-09-09T02:32:04.547Z,23.21
2017-09-09T02:32:45.000Z,23.18
2017-09-09T02:33:25.459Z,23.25
2017-09-09T02:34:05.915Z,23.21
2017-09-09T02:34:46.367Z,23.2
2017-09-09T02:35:26.825Z,23.2
2017-09-09T02:36:07.279Z,23.21
2017-09-09T02:36:47.738Z,23.18
2017-09-09T02:37:28.185Z,23.28
2017-09-09T02:38:08.641Z,23.14
2017-09-09T02:38:49.083Z,23.21
2017-09-09T02:39:29.548Z,23.2
2017-09-09T02:40:09.997Z,23.28
2017-09-09T02:40:50.453Z,23.28
2017-09-09T02:41:30.908Z,23.14
2017-09-09T02:42:11.360Z,23.23
2017-09-09T02:42:51.822Z,23.1
2017-09-09T02:43:32.273Z,23.28
2017-09-09T02:44:12.730Z,23.28
2017-09-09T02:44:53.187Z,23.23
2017-09-09T02:45:33.640Z,23.21
2017-09-09T02:46:14.094Z,23.1
2017-09-09T02:46:54.547Z,23.16
2017-09-09T02:47:34.998Z,23.14
2017-09-09T02:48:15.549Z,23.14
2017-09-09T02:48:56.013Z,23.07
2017-09-09T02:49:36.471Z,23.23
2017-09-09T02:50:16.924Z,23.25
2017-09-09T02:50:57.376Z,23.18
2017-09-09T02:51:37.827Z,23.18
2017-09-09T02:52:18.287Z,23.18
2017-09-09T02:52:58.744Z,23.16
2017-09-09T02:53:39.194Z,23.13
2017-09-09T02:54:19.629Z,23.16
2017-09-09T02:55:00.069Z,23.2
2017-09-09T02:55:40.518Z,23.17
2017-09-09T02:56:20.972Z,23.11
2017-09-09T02:57:01.427Z,23.13
2017-09-09T02:57:41.882Z,23.16
2017-09-09T02:58:22.338Z,23.17
2017-09-09T02:59:02.796Z,23.1
2017-09-09T02:59:43.259Z,23.11
2017-09-09T03:00:23.723Z,23.13
2017-09-09T03:01:04.183Z,23.16
2017-09-09T03:01:44.639Z,23.13
2017-09-09T03:02:25.110Z,23.16
2017-09-09T03:03:05.566Z,23.11
2017-09-09T03:03:46.020Z,23.11
2017-09-09T03:04:26.480Z,23.07
2017-09-09T03:05:06.925Z,23.16
2017-09-09T03:05:47.376Z,23.26
2017-09-09T03:06:27.821Z,23.14
2017-09-09T03:07:08.264Z,23.23
2017-09-09T03:07:48.704Z,23.08
2017-09-09T03:08:29.156Z,23.18
2017-09-09T03:09:09.614Z,23.13
2017-09-09T03:09:50.066Z,23.08
2017-09-09T03:10:30.546Z,23.11
2017-09-09T03:11:11.006Z,23.14
2017-09-09T03:11:51.464Z,23.18
2017-09-09T03:12:31.917Z,23.16
2017-09-09T03:13:12.374Z,23.16
2017-09-09T03:13:52.826Z,23.16
2017-09-09T03:14:33.283Z,23.18
2017-09-09T03:15:13.732Z,23.14
2017-09-09T03:15:54.174Z,23.14
2017-09-09T03:16:34.634Z,23.16
2017-09-09T03:17:15.087Z,23.07
2017-09-09T03:17:55.542Z,23.21
2017-09-09T03:18:35.994Z,23.13
2017-09-09T03:19:16.461Z,23.11
2017-09-09T03:19:56.916Z,23.1
2017-09-09T03:20:37.377Z,23.13
2017-09-09T03:21:17.833Z,23.1
2017-09-09T03:21:58.291Z,23.1
2017-09-09T03:22:38.840Z,23.17
2017-09-09T03:23:19.291Z,23.23
2017-09-09T03:23:59.752Z,23.14
2017-09-09T03:24:40.288Z,23.16
2017-09-09T03:25:20.754Z,23.2
2017-09-09T03:26:01.201Z,23.21
2017-09-09T03:26:41.658Z,23.18
2017-09-09T03:27:22.191Z,23.18
2017-09-09T03:28:02.647Z,23.1
2017-09-09T03:28:43.109Z,23.2
2017-09-09T03:29:23.716Z,23.18
2017-09-09T03:30:04.177Z,23.11
2017-09-09T03:30:44.636Z,23.16
2017-09-09T03:31:25.320Z,23.17
2017-09-09T03:32:05.779Z,23.13
2017-09-09T03:32:46.215Z,23.17
2017-09-09T03:33:26.667Z,23.2
2017-09-09T03:34:07.142Z,23.17
2017-09-09T03:34:47.601Z,23.18
2017-09-09T03:35:28.056Z,23.14
2017-09-09T03:36:08.556Z,23.21
2017-09-09T03:36:49.008Z,23.16
2017-09-09T03:37:29.462Z,23.13
2017-09-09T03:38:09.921Z,23.13
2017-09-09T03:38:50.380Z,23.13
2017-09-09T03:39:30.838Z,23.13
2017-09-09T03:40:11.293Z,23.13
2017-09-09T03:40:51.737Z,23.16
2017-09-09T03:41:32.190Z,23.1
2017-09-09T03:42:12.650Z,23.17
2017-09-09T03:42:53.106Z,23.11
2017-09-09T03:43:33.566Z,23.14
2017-09-09T03:44:14.007Z,23.17
2017-09-09T03:44:54.475Z,23.16
2017-09-09T03:45:34.929Z,23.17
2017-09-09T03:46:15.380Z,23.14
2017-09-09T03:46:55.820Z,23.16
2017-09-09T03:47:36.278Z,23.17
2017-09-09T03:48:16.769Z,23.18
2017-09-09T03:48:57.210Z,23.14
2017-09-09T03:49:37.665Z,23.14
2017-09-09T03:50:18.131Z,23.11
2017-09-09T03:50:58.589Z,23.16
2017-09-09T03:51:39.048Z,23.13
2017-09-09T03:52:19.509Z,23.14
2017-09-09T03:52:59.962Z,23.16
2017-09-09T03:53:40.413Z,23.11
2017-09-09T03:54:20.865Z,23.1
2017-09-09T03:55:01.348Z,23.08
2017-09-09T03:55:41.800Z,23.1
2017-09-09T03:56:22.269Z,23.11
2017-09-09T03:57:02.726Z,23.13
2017-09-09T03:57:43.179Z,23.11
2017-09-09T03:58:23.630Z,23.13
2017-09-09T03:59:04.097Z,23.11
2017-09-09T03:59:44.551Z,23.11
2017-09-09T04:00:25.012Z,23.18
2017-09-09T04:01:05.471Z,23.16
2017-09-09T04:01:45.924Z,23.18
2017-09-09T04:02:26.386Z,23.21
2017-09-09T04:03:06.829Z,23.17
2017-09-09T04:03:47.290Z,23.17
2017-09-09T04:04:27.742Z,23.18
2017-09-09T04:05:08.198Z,23.14
2017-09-09T04:05:48.652Z,23.2
2017-09-09T04:06:29.103Z,23.14
2017-09-09T04:07:09.559Z,23.2
2017-09-09T04:07:50.013Z,23.14
2017-09-09T04:08:30.597Z,23.14
2017-09-09T04:09:11.047Z,23.11
2017-09-09T04:09:51.504Z,23.1
2017-09-09T04:10:31.962Z,23.17
2017-09-09T04:11:12.421Z,23.13
2017-09-09T04:11:52.877Z,23.1
2017-09-09T04:12:33.336Z,23.16
2017-09-09T04:13:13.792Z,23.13
2017-09-09T04:13:54.252Z,23.18
2017-09-09T04:14:34.719Z,23.16
2017-09-09T04:15:15.172Z,23.11
2017-09-09T04:15:55.627Z,23.32
2017-09-09T04:16:36.075Z,23.21
2017-09-09T04:17:16.531Z,23.26
2017-09-09T04:17:57.006Z,23.21
2017-09-09T04:18:37.455Z,23.26
2017-09-09T04:19:17.911Z,23.29
2017-09-09T04:19:58.361Z,23.28
2017-09-09T04:20:38.815Z,23.32
2017-09-09T04:21:19.273Z,23.28
2017-09-09T04:21:59.730Z,23.33
2017-09-09T04:22:40.192Z,23.33
2017-09-09T04:23:20.645Z,23.25
2017-09-09T04:24:01.097Z,23.28
2017-09-09T04:24:41.552Z,23.29
2017-09-09T04:25:22.004Z,23.36
2017-09-09T04:26:02.458Z,23.26
2017-09-09T04:26:42.916Z,23.29
2017-09-09T04:27:23.364Z,23.32
2017-09-09T04:28:03.815Z,23.34
2017-09-09T04:28:44.271Z,23.36
2017-09-09T04:29:24.729Z,23.29
2017-09-09T04:30:05.192Z,23.36
2017-09-09T04:30:45.649Z,23.33
2017-09-09T04:31:26.105Z,23.32
2017-09-09T04:32:06.571Z,23.37
2017-09-09T04:32:47.025Z,23.39
2017-09-09T04:33:27.482Z,23.32
2017-09-09T04:34:07.938Z,23.29
2017-09-09T04:34:48.394Z,23.33
2017-09-09T04:35:28.867Z,23.37
2017-09-09T04:36:09.303Z,23.26
2017-09-09T04:36:49.761Z,23.32
2017-09-09T04:37:30.219Z,23.32
2017-09-09T04:38:10.678Z,23.29
2017-09-09T04:38:51.135Z,23.39
2017-09-09T04:39:31.592Z,23.33
2017-09-09T04:40:12.048Z,23.34
2017-09-09T04:40:52.502Z,23.36
2017-09-09T04:41:32.953Z,23.32
2017-09-09T04:42:13.419Z,23.33
2017-09-09T04:42:53.865Z,23.32
2017-09-09T04:43:34.312Z,23.32
2017-09-09T04:44:14.774Z,23.33
2017-09-09T04:44:55.227Z,23.32
2017-09-09T04:45:35.684Z,23.28
2017-09-09T04:46:16.171Z,23.29
2017-09-09T04:46:56.622Z,23.32
2017-09-09T04:47:37.073Z,23.36
2017-09-09T04:48:17.525Z,23.32
2017-09-09T04:48:57.965Z,23.29
2017-09-09T04:49:38.423Z,23.29
2017-09-09T04:50:18.871Z,23.34
2017-09-09T04:50:59.330Z,23.29
2017-09-09T04:51:39.780Z,23.32
2017-09-09T04:52:20.240Z,23.26
2017-09-09T04:53:00.689Z,23.26
2017-09-09T04:53:41.139Z,23.36
2017-09-09T04:54:21.606Z,23.29
2017-09-09T04:55:02.053Z,23.28
2017-09-09T04:55:42.506Z,23.29
2017-09-09T04:56:22.960Z,23.32
2017-09-09T04:57:03.418Z,23.28
2017-09-09T04:57:43.882Z,23.23
2017-09-09T04:58:24.327Z,23.33
2017-09-09T04:59:04.782Z,23.33
2017-09-09T04:59:45.240Z,23.25
2017-09-09T05:00:25.693Z,23.25
2017-09-09T05:01:06.141Z,23.32
2017-09-09T05:01:46.595Z,23.39
2017-09-09T05:02:27.083Z,23.34
2017-09-09T05:03:07.506Z,23.32
2017-09-09T05:03:47.959Z,23.28
2017-09-09T05:04:28.411Z,23.32
2017-09-09T05:05:08.869Z,23.33
2017-09-09T05:05:49.331Z,23.39
2017-09-09T05:06:29.785Z,23.23
2017-09-09T05:07:10.249Z,23.39
2017-09-09T05:07:50.709Z,23.39
2017-09-09T05:09:43.329Z,23.26
2017-09-09T05:10:23.782Z,23.39
2017-09-09T05:11:04.237Z,23.34
2017-09-09T05:11:44.682Z,23.36
2017-09-09T05:12:25.141Z,23.26
2017-09-09T05:13:05.595Z,23.39
2017-09-09T05:13:46.048Z,23.37
2017-09-09T05:14:26.502Z,23.32
2017-09-09T05:15:06.960Z,23.36
2017-09-09T05:15:47.412Z,23.29
2017-09-09T05:16:27.869Z,23.33
2017-09-09T05:17:08.321Z,23.26
2017-09-09T05:17:48.775Z,23.29
2017-09-09T05:18:29.232Z,23.28
2017-09-09T05:19:09.693Z,23.32
2017-09-09T05:19:50.148Z,23.33
2017-09-09T05:20:30.594Z,23.28
2017-09-09T05:21:11.045Z,23.29
2017-09-09T05:21:51.499Z,23.32
2017-09-09T05:22:31.954Z,23.25
2017-09-09T05:23:12.412Z,23.28
2017-09-09T05:23:52.862Z,23.32
2017-09-09T05:24:33.321Z,23.29
2017-09-09T05:25:13.767Z,23.2
2017-09-09T05:25:54.230Z,23.18
2017-09-09T05:26:34.681Z,23.2
2017-09-09T05:27:15.130Z,23.13
2017-09-09T05:27:55.597Z,23.16
2017-09-09T05:28:36.049Z,23.28
2017-09-09T05:29:16.505Z,23.2
2017-09-09T05:29:56.942Z,23.21
2017-09-09T05:30:37.398Z,23.23
2017-09-09T05:31:17.843Z,23.25
2017-09-09T05:31:58.295Z,23.23
2017-09-09T05:32:38.753Z,23.21
2017-09-09T05:33:19.211Z,23.17
2017-09-09T05:33:59.663Z,23.17
2017-09-09T05:34:40.120Z,23.25
2017-09-09T05:35:20.573Z,23.11
2017-09-09T05:36:01.030Z,23.17
2017-09-09T05:36:41.479Z,23.1
2017-09-09T05:37:21.937Z,23.1
2017-09-09T05:38:02.374Z,23.11
2017-09-09T05:38:42.829Z,23.1
2017-09-09T05:39:23.369Z,23.21
2017-09-09T05:40:03.816Z,23.07
2017-09-09T05:40:44.266Z,23.08
2017-09-09T05:41:24.719Z,23.11
2017-09-09T05:42:05.176Z,23.13
2017-09-09T05:42:45.633Z,23.13
2017-09-09T05:43:26.093Z,23.16
2017-09-09T05:44:06.541Z,23.13
2017-09-09T05:44:46.992Z,23.14
2017-09-09T05:45:27.448Z,23.13
2017-09-09T05:46:07.897Z,23.17
2017-09-09T05:46:48.349Z,23.1
2017-09-09T05:47:28.803Z,23.2
2017-09-09T05:48:09.263Z,23.16
2017-09-09T05:48:49.719Z,23.2
2017-09-09T05:49:30.179Z,23.21
2017-09-09T05:50:10.629Z,23.11
2017-09-09T05:50:51.080Z,23.13
2017-09-09T05:51:31.536Z,23.11
2017-09-09T05:52:12.004Z,23.14
2017-09-09T05:52:52.460Z,23.13
2017-09-09T05:53:32.918Z,23.17
2017-09-09T05:54:13.370Z,23.13
2017-09-09T05:54:53.815Z,23.13
2017-09-09T05:55:34.269Z,23.13
2017-09-09T05:56:14.728Z,23.13
2017-09-09T05:56:55.182Z,23.23
2017-09-09T05:57:35.637Z,23.18
2017-09-09T05:58:16.087Z,23.23
2017-09-09T05:58:56.543Z,23.16
2017-09-09T05:59:37.072Z,23.18
2017-09-09T06:00:17.524Z,23.23
2017-09-09T06:00:57.981Z,23.23
2017-09-09T06:01:38.539Z,23.28
2017-09-09T06:02:18.992Z,23.23
2017-09-09T06:02:59.449Z,23.25
2017-09-09T06:03:39.907Z,23.18
2017-09-09T06:04:20.466Z,23.21
2017-09-09T06:05:00.918Z,23.28
2017-09-09T06:05:41.377Z,23.23
2017-09-09T06:06:21.939Z,23.26
2017-09-09T06:07:02.391Z,23.29
2017-09-09T06:07:42.849Z,23.28
2017-09-09T06:08:23.301Z,23.28
2017-09-09T06:09:03.748Z,23.26
2017-09-09T06:09:44.208Z,23.28
2017-09-09T06:10:24.664Z,23.26
2017-09-09T06:11:05.117Z,23.28
2017-09-09T06:11:45.574Z,23.2
2017-09-09T06:12:26.029Z,23.28
2017-09-09T06:13:06.483Z,23.26
2017-09-09T06:13:46.935Z,23.28
2017-09-09T06:14:27.391Z,23.33
2017-09-09T06:15:07.834Z,23.32
2017-09-09T06:15:48.282Z,23.26
2017-09-09T06:16:28.737Z,23.2
2017-09-09T06:17:09.157Z,23.23
2017-09-09T06:17:49.603Z,23.28
2017-09-09T06:18:30.059Z,23.21
2017-09-09T06:19:10.510Z,23.16
2017-09-09T06:19:50.968Z,23.26
2017-09-09T06:20:31.420Z,23.2
2017-09-09T06:21:11.875Z,23.2
2017-09-09T06:21:52.332Z,23.29
2017-09-09T06:22:32.778Z,23.33
2017-09-09T06:23:13.241Z,23.26
2017-09-09T06:23:53.693Z,23.33
2017-09-09T06:24:34.153Z,23.28
2017-09-09T06:25:14.603Z,23.33
2017-09-09T06:25:55.055Z,23.23
2017-09-09T06:26:35.510Z,23.21
2017-09-09T06:27:15.972Z,23.28
2017-09-09T06:27:56.418Z,23.33
2017-09-09T06:28:36.876Z,23.28
2017-09-09T06:29:17.321Z,23.26
2017-09-09T06:29:57.773Z,23.33
2017-09-09T06:30:38.227Z,23.26
2017-09-09T06:31:18.677Z,23.32
2017-09-09T06:31:59.120Z,23.28
2017-09-09T06:32:39.569Z,23.36
2017-09-09T06:33:20.018Z,23.25
2017-09-09T06:34:00.471Z,23.29
2017-09-09T06:34:40.928Z,23.33
2017-09-09T06:35:21.441Z,23.32
2017-09-09T06:36:01.896Z,23.26
2017-09-09T06:36:42.350Z,23.34
2017-09-09T06:37:22.799Z,23.28
2017-09-09T06:38:03.250Z,23.29
2017-09-09T06:38:43.694Z,23.33
2017-09-09T06:39:24.141Z,23.25
2017-09-09T06:40:04.599Z,23.32
2017-09-09T06:40:45.059Z,23.28
2017-09-09T06:41:25.532Z,23.29
2017-09-09T06:42:05.964Z,23.28
2017-09-09T06:42:46.409Z,23.23
2017-09-09T06:43:26.863Z,23.29
2017-09-09T06:44:07.320Z,23.28
2017-09-09T06:44:47.785Z,23.21
2017-09-09T06:45:28.239Z,23.32
2017-09-09T06:46:08.695Z,23.29
2017-09-09T06:46:49.157Z,23.21
2017-09-09T06:47:29.607Z,23.29
2017-09-09T06:48:10.062Z,23.34
2017-09-09T06:48:50.526Z,23.26
2017-09-09T06:49:30.977Z,23.28
2017-09-09T06:50:11.408Z,23.33
2017-09-09T06:50:51.856Z,23.28
2017-09-09T06:51:32.311Z,23.29
2017-09-09T06:52:12.763Z,23.34
2017-09-09T06:52:53.214Z,23.33
2017-09-09T06:53:33.669Z,23.26
2017-09-09T06:54:14.135Z,23.26
2017-09-09T06:54:54.584Z,23.33
2017-09-09T06:55:35.033Z,23.29
2017-09-09T06:56:15.506Z,23.25
2017-09-09T06:56:55.919Z,23.34
2017-09-09T06:57:36.367Z,23.29
2017-09-09T06:58:16.841Z,23.2
2017-09-09T06:58:57.292Z,23.21
2017-09-09T06:59:37.868Z,23.29
2017-09-09T07:00:18.321Z,23.2
2017-09-09T07:00:58.769Z,23.28
2017-09-09T07:01:39.243Z,23.23
2017-09-09T07:02:19.694Z,23.26
2017-09-09T07:03:00.147Z,23.21
2017-09-09T07:04:47.811Z,23.26
2017-09-09T07:05:28.258Z,23.1
2017-09-09T07:06:08.710Z,23.2
2017-09-09T07:06:49.154Z,23.23
2017-09-09T07:07:29.609Z,23.28
2017-09-09T07:08:10.065Z,23.23
2017-09-09T07:08:50.525Z,23.2
2017-09-09T07:09:30.977Z,23.25
2017-09-09T07:10:11.462Z,23.26
2017-09-09T07:10:51.879Z,23.28
2017-09-09T07:11:32.333Z,23.32
2017-09-09T07:12:12.789Z,23.32
2017-09-09T07:12:53.246Z,23.33
2017-09-09T07:13:33.694Z,23.37
2017-09-09T07:14:14.158Z,23.33
2017-09-09T07:14:54.600Z,23.33
2017-09-09T07:15:35.054Z,23.28
2017-09-09T07:16:15.509Z,23.34
2017-09-09T07:16:55.963Z,23.39
2017-09-09T07:17:36.479Z,23.33
2017-09-09T07:18:16.935Z,23.25
2017-09-09T07:18:57.394Z,23.37
2017-09-09T07:21:10.346Z,23.32
2017-09-09T07:21:50.806Z,23.36
2017-09-09T07:23:43.506Z,23.29
2017-09-09T07:24:23.962Z,23.29
2017-09-09T07:25:04.414Z,23.32
2017-09-09T07:25:44.874Z,23.34
2017-09-09T07:26:25.323Z,23.34
2017-09-09T07:27:05.774Z,23.33
2017-09-09T07:27:46.221Z,23.34
2017-09-09T07:28:26.677Z,23.32
2017-09-09T07:29:07.176Z,23.4
2017-09-09T07:29:47.676Z,23.36
2017-09-09T07:30:28.115Z,23.4
2017-09-09T07:31:08.563Z,23.36
2017-09-09T07:31:49.037Z,23.45
2017-09-09T07:32:29.495Z,23.37
2017-09-09T07:33:09.945Z,23.29
2017-09-09T07:33:50.400Z,23.42
2017-09-09T07:34:30.854Z,23.32
2017-09-09T07:35:11.311Z,23.34
2017-09-09T07:35:51.772Z,23.36
2017-09-09T07:36:32.219Z,23.33
2017-09-09T07:37:12.659Z,23.4
2017-09-09T07:37:53.132Z,23.36
2017-09-09T07:38:33.563Z,23.47
2017-09-09T07:39:14.023Z,23.44
2017-09-09T07:39:54.468Z,23.44
2017-09-09T07:40:34.917Z,23.39
2017-09-09T07:41:15.376Z,23.4
2017-09-09T07:41:55.831Z,23.32
2017-09-09T07:42:36.284Z,23.36
2017-09-09T07:43:16.734Z,23.47
2017-09-09T07:43:57.180Z,23.4
2017-09-09T07:44:37.630Z,23.32
2017-09-09T07:45:18.119Z,23.42
2017-09-09T07:45:58.572Z,23.44
2017-09-09T07:46:39.019Z,23.45
2017-09-09T07:47:19.475Z,23.44
2017-09-09T07:47:59.926Z,23.48
2017-09-09T07:48:40.489Z,23.45
2017-09-09T07:49:20.949Z,23.45
2017-09-09T07:50:01.409Z,23.47
2017-09-09T07:50:41.860Z,23.45
2017-09-09T07:51:22.342Z,23.39
2017-09-09T07:52:02.836Z,23.51
2017-09-09T07:53:41.255Z,23.44
2017-09-09T07:54:21.709Z,23.49
2017-09-09T07:55:02.153Z,23.48
2017-09-09T07:55:42.662Z,23.44
2017-09-09T07:56:23.107Z,23.45
2017-09-09T07:57:03.556Z,23.45
2017-09-09T07:57:43.994Z,23.44
2017-09-09T07:58:24.448Z,23.45
2017-09-09T07:59:04.895Z,23.45
2017-09-09T07:59:45.337Z,23.48
2017-09-09T08:00:25.824Z,23.39
2017-09-09T08:01:06.235Z,23.45
2017-09-09T08:01:46.682Z,23.47
2017-09-09T08:02:27.150Z,23.45
2017-09-09T08:03:07.604Z,23.45
2017-09-09T08:03:48.055Z,23.4
2017-09-09T08:04:28.496Z,23.39
2017-09-09T08:05:08.971Z,23.52
2017-09-09T08:05:49.430Z,23.42
2017-09-09T08:06:29.887Z,23.45
2017-09-09T08:07:10.373Z,23.45
2017-09-09T08:07:50.829Z,23.44
2017-09-09T08:08:31.326Z,23.48
2017-09-09T08:09:11.831Z,23.4
2017-09-09T08:09:52.267Z,23.51
2017-09-09T08:10:32.704Z,23.44
2017-09-09T08:11:13.196Z,23.42
2017-09-09T08:11:53.596Z,23.45
2017-09-09T08:12:34.035Z,23.47
2017-09-09T08:13:14.480Z,23.4
2017-09-09T08:13:54.958Z,23.36
2017-09-09T08:14:35.418Z,23.52
2017-09-09T08:15:15.937Z,23.54
2017-09-09T08:15:56.389Z,23.49
2017-09-09T08:16:36.835Z,23.4
2017-09-09T08:17:17.292Z,23.42
2017-09-09T08:17:57.747Z,23.42
2017-09-09T08:18:38.235Z,23.47
2017-09-09T08:19:18.677Z,23.45
2017-09-09T08:19:59.158Z,23.47
2017-09-09T08:20:39.620Z,23.45
2017-09-09T08:21:20.073Z,23.45
2017-09-09T08:22:00.527Z,23.44
2017-09-09T08:22:40.981Z,23.51
2017-09-09T08:23:21.498Z,23.44
2017-09-09T08:24:01.888Z,23.42
2017-09-09T08:24:42.346Z,23.42
2017-09-09T08:25:22.812Z,23.42
2017-09-09T08:26:03.302Z,23.47
2017-09-09T08:26:43.759Z,23.45
2017-09-09T08:27:24.216Z,23.45
2017-09-09T08:28:04.723Z,23.51
2017-09-09T08:28:45.178Z,23.47
2017-09-09T08:29:25.630Z,23.49
2017-09-09T08:30:06.095Z,23.47
2017-09-09T08:30:46.540Z,23.51
2017-09-09T08:31:26.996Z,23.48
2017-09-09T08:32:07.446Z,23.54
2017-09-09T08:32:47.902Z,23.49
2017-09-09T08:33:28.405Z,23.49
2017-09-09T08:34:08.854Z,23.45
2017-09-09T08:34:49.304Z,23.48
2017-09-09T08:35:29.756Z,23.52
2017-09-09T08:36:10.205Z,23.52
2017-09-09T08:36:50.653Z,23.52
2017-09-09T08:37:31.096Z,23.51
2017-09-09T08:38:11.545Z,23.52
2017-09-09T08:38:51.990Z,23.48
2017-09-09T08:39:32.447Z,23.48
2017-09-09T08:40:12.899Z,23.48
2017-09-09T08:40:53.343Z,23.54
2017-09-09T08:41:33.790Z,23.47
2017-09-09T08:42:14.248Z,23.47
2017-09-09T08:42:54.695Z,23.45
2017-09-09T08:43:35.141Z,23.48
2017-09-09T08:44:15.592Z,23.54
2017-09-09T08:44:56.051Z,23.47
2017-09-09T08:45:36.496Z,23.49
2017-09-09T08:46:16.960Z,23.44
2017-09-09T08:46:57.422Z,23.4
2017-09-09T08:47:37.861Z,23.45
2017-09-09T08:48:18.310Z,23.4
2017-09-09T08:48:58.776Z,23.48
2017-09-09T08:49:39.231Z,23.44
2017-09-09T08:50:19.689Z,23.44